sensor_id;sensor_type;location;lat;lon;timestamp;temperature;humidity
68439;SHT31;55421;51.600;5.718;2024-02-26T00:00:06;6.88;78.80
68439;SHT31;55421;51.600;5.718;2024-02-26T00:02:38;6.88;78.73
68439;SHT31;55421;51.600;5.718;2024-02-26T00:05:06;6.88;78.74
68439;SHT31;55421;51.600;5.718;2024-02-26T00:07:34;6.88;78.70
68439;SHT31;55421;51.600;5.718;2024-02-26T00:10:00;6.89;78.70
68439;SHT31;55421;51.600;5.718;2024-02-26T00:12:27;6.90;78.74
68439;SHT31;55421;51.600;5.718;2024-02-26T00:14:54;6.92;78.76
68439;SHT31;55421;51.600;5.718;2024-02-26T00:17:20;6.91;78.72
68439;SHT31;55421;51.600;5.718;2024-02-26T00:19:47;6.93;78.90
68439;SHT31;55421;51.600;5.718;2024-02-26T00:22:13;6.91;79.06
68439;SHT31;55421;51.600;5.718;2024-02-26T00:24:40;6.92;79.15
68439;SHT31;55421;51.600;5.718;2024-02-26T00:27:07;6.91;79.19
68439;SHT31;55421;51.600;5.718;2024-02-26T00:29:34;6.91;79.20
68439;SHT31;55421;51.600;5.718;2024-02-26T00:32:00;6.91;79.23
68439;SHT31;55421;51.600;5.718;2024-02-26T00:34:27;6.89;79.10
68439;SHT31;55421;51.600;5.718;2024-02-26T00:36:54;6.89;79.15
68439;SHT31;55421;51.600;5.718;2024-02-26T00:39:20;6.87;79.20
68439;SHT31;55421;51.600;5.718;2024-02-26T00:41:46;6.85;79.30
68439;SHT31;55421;51.600;5.718;2024-02-26T00:44:13;6.85;79.40
68439;SHT31;55421;51.600;5.718;2024-02-26T00:46:39;6.84;79.50
68439;SHT31;55421;51.600;5.718;2024-02-26T00:49:06;6.84;79.61
68439;SHT31;55421;51.600;5.718;2024-02-26T00:51:32;6.82;79.78
68439;SHT31;55421;51.600;5.718;2024-02-26T00:53:59;6.83;79.94
68439;SHT31;55421;51.600;5.718;2024-02-26T00:56:25;6.83;80.13
68439;SHT31;55421;51.600;5.718;2024-02-26T00:58:52;6.83;80.24
68439;SHT31;55421;51.600;5.718;2024-02-26T01:01:18;6.84;80.38
68439;SHT31;55421;51.600;5.718;2024-02-26T01:03:45;6.86;80.51
68439;SHT31;55421;51.600;5.718;2024-02-26T01:06:11;6.87;80.65
68439;SHT31;55421;51.600;5.718;2024-02-26T01:08:38;6.89;80.72
68439;SHT31;55421;51.600;5.718;2024-02-26T01:11:05;6.89;80.79
68439;SHT31;55421;51.600;5.718;2024-02-26T01:13:31;6.87;80.68
68439;SHT31;55421;51.600;5.718;2024-02-26T01:15:58;6.85;80.64
68439;SHT31;55421;51.600;5.718;2024-02-26T01:18:24;6.82;80.71
68439;SHT31;55421;51.600;5.718;2024-02-26T01:20:51;6.79;80.77
68439;SHT31;55421;51.600;5.718;2024-02-26T01:23:19;6.76;80.89
68439;SHT31;55421;51.600;5.718;2024-02-26T01:25:46;6.72;80.97
68439;SHT31;55421;51.600;5.718;2024-02-26T01:28:13;6.72;80.95
68439;SHT31;55421;51.600;5.718;2024-02-26T01:30:40;6.71;81.00
68439;SHT31;55421;51.600;5.718;2024-02-26T01:33:06;6.71;81.00
68439;SHT31;55421;51.600;5.718;2024-02-26T01:35:33;6.71;81.00
68439;SHT31;55421;51.600;5.718;2024-02-26T01:37:59;6.70;80.99
68439;SHT31;55421;51.600;5.718;2024-02-26T01:40:26;6.70;81.00
68439;SHT31;55421;51.600;5.718;2024-02-26T01:42:54;6.71;81.03
68439;SHT31;55421;51.600;5.718;2024-02-26T01:45:20;6.70;81.02
68439;SHT31;55421;51.600;5.718;2024-02-26T01:47:53;6.68;81.06
68439;SHT31;55421;51.600;5.718;2024-02-26T01:50:20;6.68;81.12
68439;SHT31;55421;51.600;5.718;2024-02-26T01:52:50;6.67;81.18
68439;SHT31;55421;51.600;5.718;2024-02-26T01:55:20;6.68;81.20
68439;SHT31;55421;51.600;5.718;2024-02-26T01:57:49;6.68;81.30
68439;SHT31;55421;51.600;5.718;2024-02-26T02:00:18;6.67;81.34
68439;SHT31;55421;51.600;5.718;2024-02-26T02:02:47;6.66;81.28
68439;SHT31;55421;51.600;5.718;2024-02-26T02:05:15;6.65;81.26
68439;SHT31;55421;51.600;5.718;2024-02-26T02:07:46;6.63;81.30
68439;SHT31;55421;51.600;5.718;2024-02-26T02:10:18;6.63;81.31
68439;SHT31;55421;51.600;5.718;2024-02-26T02:12:49;6.62;81.31
68439;SHT31;55421;51.600;5.718;2024-02-26T02:15:15;6.61;81.36
68439;SHT31;55421;51.600;5.718;2024-02-26T02:17:42;6.61;81.37
68439;SHT31;55421;51.600;5.718;2024-02-26T02:20:09;6.60;81.44
68439;SHT31;55421;51.600;5.718;2024-02-26T02:22:43;6.59;81.53
68439;SHT31;55421;51.600;5.718;2024-02-26T02:25:11;6.58;81.65
68439;SHT31;55421;51.600;5.718;2024-02-26T02:27:37;6.56;81.69
68439;SHT31;55421;51.600;5.718;2024-02-26T02:30:05;6.55;81.76
68439;SHT31;55421;51.600;5.718;2024-02-26T02:32:34;6.55;81.81
68439;SHT31;55421;51.600;5.718;2024-02-26T02:35:04;6.53;81.91
68439;SHT31;55421;51.600;5.718;2024-02-26T02:37:32;6.53;81.99
68439;SHT31;55421;51.600;5.718;2024-02-26T02:39:58;6.50;82.00
68439;SHT31;55421;51.600;5.718;2024-02-26T02:42:25;6.50;82.07
68439;SHT31;55421;51.600;5.718;2024-02-26T02:44:52;6.48;82.22
68439;SHT31;55421;51.600;5.718;2024-02-26T02:47:19;6.47;82.32
68439;SHT31;55421;51.600;5.718;2024-02-26T02:49:45;6.45;82.42
68439;SHT31;55421;51.600;5.718;2024-02-26T02:52:12;6.44;82.52
68439;SHT31;55421;51.600;5.718;2024-02-26T02:54:39;6.41;82.63
68439;SHT31;55421;51.600;5.718;2024-02-26T02:57:08;6.39;82.74
68439;SHT31;55421;51.600;5.718;2024-02-26T02:59:35;6.38;82.82
68439;SHT31;55421;51.600;5.718;2024-02-26T03:02:03;6.37;82.91
68439;SHT31;55421;51.600;5.718;2024-02-26T03:04:31;6.36;83.02
68439;SHT31;55421;51.600;5.718;2024-02-26T03:06:57;6.35;83.10
68439;SHT31;55421;51.600;5.718;2024-02-26T03:09:24;6.34;83.10
68439;SHT31;55421;51.600;5.718;2024-02-26T03:11:50;6.33;83.18
68439;SHT31;55421;51.600;5.718;2024-02-26T03:14:17;6.33;83.22
68439;SHT31;55421;51.600;5.718;2024-02-26T03:16:44;6.32;83.30
68439;SHT31;55421;51.600;5.718;2024-02-26T03:19:10;6.32;83.36
68439;SHT31;55421;51.600;5.718;2024-02-26T03:21:37;6.33;83.40
68439;SHT31;55421;51.600;5.718;2024-02-26T03:24:04;6.31;83.42
68439;SHT31;55421;51.600;5.718;2024-02-26T03:26:31;6.31;83.51
68439;SHT31;55421;51.600;5.718;2024-02-26T03:28:57;6.30;83.60
68439;SHT31;55421;51.600;5.718;2024-02-26T03:31:24;6.29;83.63
68439;SHT31;55421;51.600;5.718;2024-02-26T03:33:50;6.30;83.77
68439;SHT31;55421;51.600;5.718;2024-02-26T03:36:17;6.29;83.86
68439;SHT31;55421;51.600;5.718;2024-02-26T03:38:43;6.29;83.90
68439;SHT31;55421;51.600;5.718;2024-02-26T03:41:10;6.29;83.97
68439;SHT31;55421;51.600;5.718;2024-02-26T03:43:36;6.29;84.00
68439;SHT31;55421;51.600;5.718;2024-02-26T03:46:03;6.29;84.00
68439;SHT31;55421;51.600;5.718;2024-02-26T03:48:29;6.31;84.03
68439;SHT31;55421;51.600;5.718;2024-02-26T03:50:56;6.30;84.08
68439;SHT31;55421;51.600;5.718;2024-02-26T03:53:23;6.30;84.08
68439;SHT31;55421;51.600;5.718;2024-02-26T03:55:49;6.32;84.10
68439;SHT31;55421;51.600;5.718;2024-02-26T03:58:18;6.32;84.10
68439;SHT31;55421;51.600;5.718;2024-02-26T04:00:45;6.32;84.18
68439;SHT31;55421;51.600;5.718;2024-02-26T04:03:13;6.32;84.28
68439;SHT31;55421;51.600;5.718;2024-02-26T04:05:40;6.31;84.36
68439;SHT31;55421;51.600;5.718;2024-02-26T04:08:06;6.29;84.43
68439;SHT31;55421;51.600;5.718;2024-02-26T04:10:33;6.28;84.52
68439;SHT31;55421;51.600;5.718;2024-02-26T04:13:07;6.25;84.59
68439;SHT31;55421;51.600;5.718;2024-02-26T04:15:34;6.22;84.67
68439;SHT31;55421;51.600;5.718;2024-02-26T04:18:01;6.20;84.71
68439;SHT31;55421;51.600;5.718;2024-02-26T04:20:28;6.18;84.80
68439;SHT31;55421;51.600;5.718;2024-02-26T04:22:55;6.16;84.82
68439;SHT31;55421;51.600;5.718;2024-02-26T04:25:21;6.13;84.91
68439;SHT31;55421;51.600;5.718;2024-02-26T04:27:48;6.11;84.97
68439;SHT31;55421;51.600;5.718;2024-02-26T04:30:14;6.09;85.02
68439;SHT31;55421;51.600;5.718;2024-02-26T04:32:41;6.05;85.18
68439;SHT31;55421;51.600;5.718;2024-02-26T04:35:07;6.04;85.22
68439;SHT31;55421;51.600;5.718;2024-02-26T04:37:34;6.02;85.22
68439;SHT31;55421;51.600;5.718;2024-02-26T04:40:01;6.02;85.29
68439;SHT31;55421;51.600;5.718;2024-02-26T04:42:28;6.02;85.35
68439;SHT31;55421;51.600;5.718;2024-02-26T04:44:55;6.01;85.43
68439;SHT31;55421;51.600;5.718;2024-02-26T04:47:22;6.00;85.40
68439;SHT31;55421;51.600;5.718;2024-02-26T04:49:49;6.01;85.52
68439;SHT31;55421;51.600;5.718;2024-02-26T04:52:16;6.01;85.52
68439;SHT31;55421;51.600;5.718;2024-02-26T04:54:44;6.01;85.62
68439;SHT31;55421;51.600;5.718;2024-02-26T04:57:11;6.01;85.60
68439;SHT31;55421;51.600;5.718;2024-02-26T04:59:37;6.01;85.67
68439;SHT31;55421;51.600;5.718;2024-02-26T05:02:04;6.01;85.68
68439;SHT31;55421;51.600;5.718;2024-02-26T05:04:30;6.01;85.70
68439;SHT31;55421;51.600;5.718;2024-02-26T05:06:57;6.01;85.79
68439;SHT31;55421;51.600;5.718;2024-02-26T05:09:23;6.01;85.88
68439;SHT31;55421;51.600;5.718;2024-02-26T05:11:50;6.01;85.87
68439;SHT31;55421;51.600;5.718;2024-02-26T05:14:16;6.02;85.92
68439;SHT31;55421;51.600;5.718;2024-02-26T05:16:43;6.03;85.90
68439;SHT31;55421;51.600;5.718;2024-02-26T05:19:09;6.04;85.87
68439;SHT31;55421;51.600;5.718;2024-02-26T05:21:35;6.05;85.81
68439;SHT31;55421;51.600;5.718;2024-02-26T05:24:02;6.07;85.80
68439;SHT31;55421;51.600;5.718;2024-02-26T05:26:29;6.07;85.80
68439;SHT31;55421;51.600;5.718;2024-02-26T05:28:55;6.08;85.80
68439;SHT31;55421;51.600;5.718;2024-02-26T05:31:26;6.09;85.75
68439;SHT31;55421;51.600;5.718;2024-02-26T05:33:53;6.08;85.70
68439;SHT31;55421;51.600;5.718;2024-02-26T05:36:20;6.09;85.64
68439;SHT31;55421;51.600;5.718;2024-02-26T05:38:48;6.10;85.61
68439;SHT31;55421;51.600;5.718;2024-02-26T05:41:15;6.10;85.60
68439;SHT31;55421;51.600;5.718;2024-02-26T05:43:46;6.11;85.61
68439;SHT31;55421;51.600;5.718;2024-02-26T05:46:12;6.11;85.64
68439;SHT31;55421;51.600;5.718;2024-02-26T05:48:39;6.10;85.62
68439;SHT31;55421;51.600;5.718;2024-02-26T05:51:05;6.11;85.68
68439;SHT31;55421;51.600;5.718;2024-02-26T05:53:32;6.11;85.66
68439;SHT31;55421;51.600;5.718;2024-02-26T05:55:58;6.11;85.69
68439;SHT31;55421;51.600;5.718;2024-02-26T05:58:25;6.10;85.69
68439;SHT31;55421;51.600;5.718;2024-02-26T06:00:51;6.09;85.69
68439;SHT31;55421;51.600;5.718;2024-02-26T06:03:18;6.08;85.67
68439;SHT31;55421;51.600;5.718;2024-02-26T06:05:44;6.06;85.62
68439;SHT31;55421;51.600;5.718;2024-02-26T06:08:12;6.05;85.66
68439;SHT31;55421;51.600;5.718;2024-02-26T06:10:38;6.03;85.65
68439;SHT31;55421;51.600;5.718;2024-02-26T06:13:05;6.01;85.70
68439;SHT31;55421;51.600;5.718;2024-02-26T06:15:32;6.01;85.70
68439;SHT31;55421;51.600;5.718;2024-02-26T06:17:58;6.00;85.69
68439;SHT31;55421;51.600;5.718;2024-02-26T06:20:25;5.99;85.69
68439;SHT31;55421;51.600;5.718;2024-02-26T06:22:51;5.99;85.71
68439;SHT31;55421;51.600;5.718;2024-02-26T06:25:18;5.98;85.72
68439;SHT31;55421;51.600;5.718;2024-02-26T06:27:45;5.96;85.70
68439;SHT31;55421;51.600;5.718;2024-02-26T06:30:11;5.94;85.73
68439;SHT31;55421;51.600;5.718;2024-02-26T06:32:38;5.92;85.78
68439;SHT31;55421;51.600;5.718;2024-02-26T06:35:05;5.91;85.80
68439;SHT31;55421;51.600;5.718;2024-02-26T06:37:34;5.89;85.87
68439;SHT31;55421;51.600;5.718;2024-02-26T06:40:02;5.86;85.90
68439;SHT31;55421;51.600;5.718;2024-02-26T06:42:30;5.86;86.00
68439;SHT31;55421;51.600;5.718;2024-02-26T06:44:56;5.84;86.03
68439;SHT31;55421;51.600;5.718;2024-02-26T06:47:23;5.83;86.10
68439;SHT31;55421;51.600;5.718;2024-02-26T06:49:49;5.82;86.14
68439;SHT31;55421;51.600;5.718;2024-02-26T06:52:18;5.80;86.25
68439;SHT31;55421;51.600;5.718;2024-02-26T06:54:45;5.79;86.26
68439;SHT31;55421;51.600;5.718;2024-02-26T06:57:14;5.78;86.29
68439;SHT31;55421;51.600;5.718;2024-02-26T06:59:40;5.78;86.30
68439;SHT31;55421;51.600;5.718;2024-02-26T07:02:12;5.78;86.37
68439;SHT31;55421;51.600;5.718;2024-02-26T07:04:39;5.78;86.39
68439;SHT31;55421;51.600;5.718;2024-02-26T07:07:07;5.77;86.36
68439;SHT31;55421;51.600;5.718;2024-02-26T07:09:34;5.76;86.44
68439;SHT31;55421;51.600;5.718;2024-02-26T07:12:00;5.75;86.48
68439;SHT31;55421;51.600;5.718;2024-02-26T07:14:27;5.74;86.51
68439;SHT31;55421;51.600;5.718;2024-02-26T07:16:53;5.75;86.57
68439;SHT31;55421;51.600;5.718;2024-02-26T07:19:20;5.74;86.63
68439;SHT31;55421;51.600;5.718;2024-02-26T07:21:46;5.73;86.61
68439;SHT31;55421;51.600;5.718;2024-02-26T07:24:13;5.74;86.70
68439;SHT31;55421;51.600;5.718;2024-02-26T07:26:40;5.75;86.78
68439;SHT31;55421;51.600;5.718;2024-02-26T07:29:07;5.75;86.74
68439;SHT31;55421;51.600;5.718;2024-02-26T07:31:33;5.75;86.76
68439;SHT31;55421;51.600;5.718;2024-02-26T07:34:00;5.77;86.87
68439;SHT31;55421;51.600;5.718;2024-02-26T07:36:26;5.78;86.92
68439;SHT31;55421;51.600;5.718;2024-02-26T07:38:53;5.78;86.93
68439;SHT31;55421;51.600;5.718;2024-02-26T07:41:20;5.79;86.99
68439;SHT31;55421;51.600;5.718;2024-02-26T07:43:47;5.80;86.95
68439;SHT31;55421;51.600;5.718;2024-02-26T07:46:14;5.79;86.93
68439;SHT31;55421;51.600;5.718;2024-02-26T07:48:41;5.82;86.96
68439;SHT31;55421;51.600;5.718;2024-02-26T07:51:08;5.82;87.00
68439;SHT31;55421;51.600;5.718;2024-02-26T07:53:34;5.83;86.91
68439;SHT31;55421;51.600;5.718;2024-02-26T07:56:01;5.84;86.90
68439;SHT31;55421;51.600;5.718;2024-02-26T07:58:27;5.84;86.92
68439;SHT31;55421;51.600;5.718;2024-02-26T08:00:53;5.84;86.91
68439;SHT31;55421;51.600;5.718;2024-02-26T08:03:20;5.84;86.95
68439;SHT31;55421;51.600;5.718;2024-02-26T08:05:47;5.86;87.00
68439;SHT31;55421;51.600;5.718;2024-02-26T08:08:13;5.86;87.00
68439;SHT31;55421;51.600;5.718;2024-02-26T08:10:40;5.88;86.92
68439;SHT31;55421;51.600;5.718;2024-02-26T08:13:06;5.90;86.95
68439;SHT31;55421;51.600;5.718;2024-02-26T08:15:33;5.92;86.93
68439;SHT31;55421;51.600;5.718;2024-02-26T08:18:01;5.94;86.91
68439;SHT31;55421;51.600;5.718;2024-02-26T08:20:30;5.94;86.87
68439;SHT31;55421;51.600;5.718;2024-02-26T08:22:56;5.96;86.83
68439;SHT31;55421;51.600;5.718;2024-02-26T08:25:24;5.97;86.76
68439;SHT31;55421;51.600;5.718;2024-02-26T08:27:50;5.98;86.70
68439;SHT31;55421;51.600;5.718;2024-02-26T08:30:17;5.99;86.65
68439;SHT31;55421;51.600;5.718;2024-02-26T08:32:44;5.99;86.60
68439;SHT31;55421;51.600;5.718;2024-02-26T08:35:12;5.98;86.50
68439;SHT31;55421;51.600;5.718;2024-02-26T08:37:39;5.98;86.49
68439;SHT31;55421;51.600;5.718;2024-02-26T08:40:06;5.97;86.41
68439;SHT31;55421;51.600;5.718;2024-02-26T08:42:33;5.97;86.32
68439;SHT31;55421;51.600;5.718;2024-02-26T08:45:00;5.97;86.24
68439;SHT31;55421;51.600;5.718;2024-02-26T08:47:28;5.97;86.20
68439;SHT31;55421;51.600;5.718;2024-02-26T08:49:55;5.96;86.22
68439;SHT31;55421;51.600;5.718;2024-02-26T08:52:21;5.97;86.30
68439;SHT31;55421;51.600;5.718;2024-02-26T08:54:49;5.97;86.30
68439;SHT31;55421;51.600;5.718;2024-02-26T08:57:16;5.96;86.34
68439;SHT31;55421;51.600;5.718;2024-02-26T09:02:56;5.97;86.34
68439;SHT31;55421;51.600;5.718;2024-02-26T09:05:22;5.97;86.31
68439;SHT31;55421;51.600;5.718;2024-02-26T09:07:49;5.97;86.40
68439;SHT31;55421;51.600;5.718;2024-02-26T09:10:18;5.99;86.47
68439;SHT31;55421;51.600;5.718;2024-02-26T09:12:44;5.99;86.50
68439;SHT31;55421;51.600;5.718;2024-02-26T09:15:11;5.99;86.49
68439;SHT31;55421;51.600;5.718;2024-02-26T09:17:37;6.00;86.53
68439;SHT31;55421;51.600;5.718;2024-02-26T09:20:04;6.01;86.56
68439;SHT31;55421;51.600;5.718;2024-02-26T09:22:32;6.02;86.62
68439;SHT31;55421;51.600;5.718;2024-02-26T09:24:58;6.03;86.60
68439;SHT31;55421;51.600;5.718;2024-02-26T09:27:25;6.04;86.67
68439;SHT31;55421;51.600;5.718;2024-02-26T09:29:51;6.04;86.70
68439;SHT31;55421;51.600;5.718;2024-02-26T09:32:18;6.05;86.75
68439;SHT31;55421;51.600;5.718;2024-02-26T09:34:44;6.04;86.70
68439;SHT31;55421;51.600;5.718;2024-02-26T09:37:11;6.06;86.77
68439;SHT31;55421;51.600;5.718;2024-02-26T09:39:38;6.07;86.79
68439;SHT31;55421;51.600;5.718;2024-02-26T09:42:05;6.08;86.86
68439;SHT31;55421;51.600;5.718;2024-02-26T09:44:36;6.09;86.90
68439;SHT31;55421;51.600;5.718;2024-02-26T09:47:08;6.09;86.89
68439;SHT31;55421;51.600;5.718;2024-02-26T09:49:41;6.10;86.91
68439;SHT31;55421;51.600;5.718;2024-02-26T09:52:09;6.10;86.97
68439;SHT31;55421;51.600;5.718;2024-02-26T09:54:36;6.10;86.99
68439;SHT31;55421;51.600;5.718;2024-02-26T09:57:03;6.11;86.99
68439;SHT31;55421;51.600;5.718;2024-02-26T09:59:34;6.11;87.00
68439;SHT31;55421;51.600;5.718;2024-02-26T10:02:08;6.12;87.05
68439;SHT31;55421;51.600;5.718;2024-02-26T10:04:40;6.13;87.03
68439;SHT31;55421;51.600;5.718;2024-02-26T10:07:11;6.14;87.11
68439;SHT31;55421;51.600;5.718;2024-02-26T10:09:39;6.13;87.10
68439;SHT31;55421;51.600;5.718;2024-02-26T10:12:08;6.15;87.10
68439;SHT31;55421;51.600;5.718;2024-02-26T10:14:38;6.16;87.13
68439;SHT31;55421;51.600;5.718;2024-02-26T10:17:06;6.16;87.14
68439;SHT31;55421;51.600;5.718;2024-02-26T10:19:34;6.16;87.09
68439;SHT31;55421;51.600;5.718;2024-02-26T10:22:01;6.17;87.12
68439;SHT31;55421;51.600;5.718;2024-02-26T10:24:29;6.18;87.19
68439;SHT31;55421;51.600;5.718;2024-02-26T10:26:56;6.18;87.17
68439;SHT31;55421;51.600;5.718;2024-02-26T10:29:24;6.19;87.17
68439;SHT31;55421;51.600;5.718;2024-02-26T10:31:53;6.20;87.20
68439;SHT31;55421;51.600;5.718;2024-02-26T10:34:20;6.22;87.20
68439;SHT31;55421;51.600;5.718;2024-02-26T10:36:47;6.24;87.20
68439;SHT31;55421;51.600;5.718;2024-02-26T10:39:13;6.23;87.20
68439;SHT31;55421;51.600;5.718;2024-02-26T10:41:41;6.23;87.17
68439;SHT31;55421;51.600;5.718;2024-02-26T10:44:12;6.21;87.19
68439;SHT31;55421;51.600;5.718;2024-02-26T10:46:42;6.21;87.27
68439;SHT31;55421;51.600;5.718;2024-02-26T10:49:13;6.21;87.31
68439;SHT31;55421;51.600;5.718;2024-02-26T10:51:44;6.21;87.34
68439;SHT31;55421;51.600;5.718;2024-02-26T10:54:16;6.22;87.36
68439;SHT31;55421;51.600;5.718;2024-02-26T10:56:42;6.21;87.34
68439;SHT31;55421;51.600;5.718;2024-02-26T10:59:09;6.24;87.40
68439;SHT31;55421;51.600;5.718;2024-02-26T11:01:39;6.26;87.40
68439;SHT31;55421;51.600;5.718;2024-02-26T11:04:08;6.27;87.40
68439;SHT31;55421;51.600;5.718;2024-02-26T11:06:36;6.25;87.31
68439;SHT31;55421;51.600;5.718;2024-02-26T11:09:04;6.26;87.30
68439;SHT31;55421;51.600;5.718;2024-02-26T11:11:32;6.27;87.33
68439;SHT31;55421;51.600;5.718;2024-02-26T11:14:03;6.29;87.40
68439;SHT31;55421;51.600;5.718;2024-02-26T11:16:31;6.29;87.40
68439;SHT31;55421;51.600;5.718;2024-02-26T11:19:02;6.29;87.40
68439;SHT31;55421;51.600;5.718;2024-02-26T11:21:29;6.28;87.48
68439;SHT31;55421;51.600;5.718;2024-02-26T11:24:07;6.27;87.47
68439;SHT31;55421;51.600;5.718;2024-02-26T11:26:44;6.27;87.50
68439;SHT31;55421;51.600;5.718;2024-02-26T11:29:18;6.28;87.56
68439;SHT31;55421;51.600;5.718;2024-02-26T11:31:48;6.30;87.58
68439;SHT31;55421;51.600;5.718;2024-02-26T11:34:15;6.30;87.60
68439;SHT31;55421;51.600;5.718;2024-02-26T11:36:43;6.29;87.59
68439;SHT31;55421;51.600;5.718;2024-02-26T11:39:12;6.30;87.60
68439;SHT31;55421;51.600;5.718;2024-02-26T11:41:43;6.32;87.63
68439;SHT31;55421;51.600;5.718;2024-02-26T11:44:09;6.31;87.66
68439;SHT31;55421;51.600;5.718;2024-02-26T11:46:40;6.32;87.69
68439;SHT31;55421;51.600;5.718;2024-02-26T11:51:54;6.33;87.64
68439;SHT31;55421;51.600;5.718;2024-02-26T12:00:17;6.38;87.69
68439;SHT31;55421;51.600;5.718;2024-02-26T12:02:55;6.43;87.69
68439;SHT31;55421;51.600;5.718;2024-02-26T12:05:30;6.45;87.60
68439;SHT31;55421;51.600;5.718;2024-02-26T12:07:59;6.47;87.59
68439;SHT31;55421;51.600;5.718;2024-02-26T12:10:33;6.48;87.53
68439;SHT31;55421;51.600;5.718;2024-02-26T12:13:03;6.49;87.43
68439;SHT31;55421;51.600;5.718;2024-02-26T12:15:44;6.49;87.40
68439;SHT31;55421;51.600;5.718;2024-02-26T12:18:18;6.51;87.41
68439;SHT31;55421;51.600;5.718;2024-02-26T12:20:44;6.53;87.44
68439;SHT31;55421;51.600;5.718;2024-02-26T12:23:15;6.53;87.38
68439;SHT31;55421;51.600;5.718;2024-02-26T12:25:45;6.54;87.35
68439;SHT31;55421;51.600;5.718;2024-02-26T12:28:14;6.53;87.32
68439;SHT31;55421;51.600;5.718;2024-02-26T12:30:41;6.52;87.33
68439;SHT31;55421;51.600;5.718;2024-02-26T12:33:08;6.52;87.36
68439;SHT31;55421;51.600;5.718;2024-02-26T12:35:34;6.52;87.36
68439;SHT31;55421;51.600;5.718;2024-02-26T12:38:02;6.50;87.40
68439;SHT31;55421;51.600;5.718;2024-02-26T12:40:30;6.48;87.41
68439;SHT31;55421;51.600;5.718;2024-02-26T12:42:58;6.46;87.44
68439;SHT31;55421;51.600;5.718;2024-02-26T12:45:24;6.45;87.59
68439;SHT31;55421;51.600;5.718;2024-02-26T12:47:52;6.44;87.63
68439;SHT31;55421;51.600;5.718;2024-02-26T12:50:18;6.44;87.63
68439;SHT31;55421;51.600;5.718;2024-02-26T12:52:46;6.43;87.70
68439;SHT31;55421;51.600;5.718;2024-02-26T12:55:14;6.42;87.65
68439;SHT31;55421;51.600;5.718;2024-02-26T12:57:45;6.40;87.66
68439;SHT31;55421;51.600;5.718;2024-02-26T13:00:13;6.39;87.73
68439;SHT31;55421;51.600;5.718;2024-02-26T13:02:44;6.38;87.78
68439;SHT31;55421;51.600;5.718;2024-02-26T13:05:12;6.36;87.72
68439;SHT31;55421;51.600;5.718;2024-02-26T13:07:41;6.34;87.74
68439;SHT31;55421;51.600;5.718;2024-02-26T13:10:09;6.33;87.80
68439;SHT31;55421;51.600;5.718;2024-02-26T13:12:43;6.31;87.79
68439;SHT31;55421;51.600;5.718;2024-02-26T13:15:15;6.31;87.79
68439;SHT31;55421;51.600;5.718;2024-02-26T13:17:44;6.32;87.82
68439;SHT31;55421;51.600;5.718;2024-02-26T13:20:12;6.30;87.80
68439;SHT31;55421;51.600;5.718;2024-02-26T13:22:50;6.31;87.85
68439;SHT31;55421;51.600;5.718;2024-02-26T13:25:20;6.31;87.85
68439;SHT31;55421;51.600;5.718;2024-02-26T13:27:47;6.30;87.79
68439;SHT31;55421;51.600;5.718;2024-02-26T13:30:13;6.30;87.86
68439;SHT31;55421;51.600;5.718;2024-02-26T13:32:40;6.30;87.80
68439;SHT31;55421;51.600;5.718;2024-02-26T13:35:10;6.31;87.81
68439;SHT31;55421;51.600;5.718;2024-02-26T13:37:38;6.31;87.81
68439;SHT31;55421;51.600;5.718;2024-02-26T13:40:07;6.31;87.80
68439;SHT31;55421;51.600;5.718;2024-02-26T13:42:35;6.30;87.85
68439;SHT31;55421;51.600;5.718;2024-02-26T13:45:05;6.31;87.83
68439;SHT31;55421;51.600;5.718;2024-02-26T13:47:33;6.32;87.82
68439;SHT31;55421;51.600;5.718;2024-02-26T13:50:02;6.34;87.84
68439;SHT31;55421;51.600;5.718;2024-02-26T13:52:30;6.34;87.83
68439;SHT31;55421;51.600;5.718;2024-02-26T13:54:58;6.35;87.84
68439;SHT31;55421;51.600;5.718;2024-02-26T13:57:25;6.37;87.90
68439;SHT31;55421;51.600;5.718;2024-02-26T13:59:53;6.37;87.89
68439;SHT31;55421;51.600;5.718;2024-02-26T14:02:19;6.38;87.90
68439;SHT31;55421;51.600;5.718;2024-02-26T14:04:46;6.38;87.91
68439;SHT31;55421;51.600;5.718;2024-02-26T14:07:13;6.38;87.91
68439;SHT31;55421;51.600;5.718;2024-02-26T14:09:40;6.38;87.93
68439;SHT31;55421;51.600;5.718;2024-02-26T14:12:06;6.39;87.92
68439;SHT31;55421;51.600;5.718;2024-02-26T14:14:34;6.40;87.90
68439;SHT31;55421;51.600;5.718;2024-02-26T14:17:04;6.41;87.90
68439;SHT31;55421;51.600;5.718;2024-02-26T14:19:32;6.40;87.93
68439;SHT31;55421;51.600;5.718;2024-02-26T14:21:58;6.40;87.90
68439;SHT31;55421;51.600;5.718;2024-02-26T14:24:25;6.39;87.94
68439;SHT31;55421;51.600;5.718;2024-02-26T14:26:51;6.41;87.96
68439;SHT31;55421;51.600;5.718;2024-02-26T14:29:18;6.42;88.01
68439;SHT31;55421;51.600;5.718;2024-02-26T14:31:44;6.41;88.10
68439;SHT31;55421;51.600;5.718;2024-02-26T14:34:11;6.41;88.10
68439;SHT31;55421;51.600;5.718;2024-02-26T14:36:37;6.41;88.15
68439;SHT31;55421;51.600;5.718;2024-02-26T14:39:04;6.40;88.22
68439;SHT31;55421;51.600;5.718;2024-02-26T14:41:31;6.40;88.32
68439;SHT31;55421;51.600;5.718;2024-02-26T14:43:57;6.39;88.32
68439;SHT31;55421;51.600;5.718;2024-02-26T14:46:24;6.40;88.45
68439;SHT31;55421;51.600;5.718;2024-02-26T14:48:50;6.39;88.56
68439;SHT31;55421;51.600;5.718;2024-02-26T14:51:16;6.40;88.60
68439;SHT31;55421;51.600;5.718;2024-02-26T14:53:43;6.40;88.66
68439;SHT31;55421;51.600;5.718;2024-02-26T14:56:10;6.40;88.73
68439;SHT31;55421;51.600;5.718;2024-02-26T14:58:37;6.40;88.71
68439;SHT31;55421;51.600;5.718;2024-02-26T15:01:04;6.41;88.70
68439;SHT31;55421;51.600;5.718;2024-02-26T15:03:30;6.41;88.74
68439;SHT31;55421;51.600;5.718;2024-02-26T15:05:57;6.42;88.72
68439;SHT31;55421;51.600;5.718;2024-02-26T15:08:23;6.42;88.77
68439;SHT31;55421;51.600;5.718;2024-02-26T15:10:50;6.43;88.77
68439;SHT31;55421;51.600;5.718;2024-02-26T15:13:17;6.42;88.83
68439;SHT31;55421;51.600;5.718;2024-02-26T15:18:46;6.43;88.98
68439;SHT31;55421;51.600;5.718;2024-02-26T15:21:13;6.43;88.91
68439;SHT31;55421;51.600;5.718;2024-02-26T15:23:44;6.43;88.86
68439;SHT31;55421;51.600;5.718;2024-02-26T15:26:12;6.45;88.73
68439;SHT31;55421;51.600;5.718;2024-02-26T15:28:39;6.45;88.68
68439;SHT31;55421;51.600;5.718;2024-02-26T15:31:06;6.44;88.52
68439;SHT31;55421;51.600;5.718;2024-02-26T15:33:32;6.43;88.50
68439;SHT31;55421;51.600;5.718;2024-02-26T15:35:59;6.43;88.50
68439;SHT31;55421;51.600;5.718;2024-02-26T15:38:25;6.42;88.51
68439;SHT31;55421;51.600;5.718;2024-02-26T15:40:53;6.42;88.53
68439;SHT31;55421;51.600;5.718;2024-02-26T15:43:20;6.42;88.51
68439;SHT31;55421;51.600;5.718;2024-02-26T15:45:47;6.42;88.51
68439;SHT31;55421;51.600;5.718;2024-02-26T15:48:14;6.42;88.45
68439;SHT31;55421;51.600;5.718;2024-02-26T15:50:41;6.42;88.48
68439;SHT31;55421;51.600;5.718;2024-02-26T15:53:08;6.42;88.50
68439;SHT31;55421;51.600;5.718;2024-02-26T15:55:35;6.45;88.50
68439;SHT31;55421;51.600;5.718;2024-02-26T15:58:01;6.46;88.48
68439;SHT31;55421;51.600;5.718;2024-02-26T16:00:28;6.47;88.40